Terminal Aerodrome Forecast
Issued by NWS Charleston, SC

Home | Current Version | Previous Version | Text Only | Print | Product List | Glossary On
Versions: 1 2 3 4 5 6 7 8 9 10 11 12 13 14
000
FTUS42 KCHS 181503 AAA
TAFSAV
TAF AMD
KSAV 181503Z 1815/1912 23004KT P6SM SCT020 OVC050
      TEMPO 1815/1817 4SM -RA BKN015
     FM181700 25006KT 6SM -RA BKN025
     FM182100 24005KT P6SM SCT020 OVC040
     FM190200 23003KT 4SM BR SCT004 BKN020
     FM190500 VRB03KT 1SM BR SCT002 OVC004
     FM190900 VRB03KT 1/2SM FG OVC002=

USA.gov is the U.S. government's official web portal to all federal, state and local government web resources and services.